Corelli — 9HZQ8 — position and weather

sailwx.info

Track history (hours):
 
Tides and Currents Weather Stations Pressure Air Temp Water Temp Dewpoint Dewpoint Depression Visibility Wind Speed Wind Dir Waves Ship Positions

Corelli

Last reported at 2018-Jun-21 18:00 UTC. Time now 2018-Jun-21 18:05 UTC.
Position N 38°31' W 008°52'.

Length 169 m; draft 7.6 m.

Type: Ship (hazmat cat A). MMSI: 256648000.

Date/timePositionNaut miles runAvg speedWind from/ knotsBaromVisibWave heightAir tempDewpointWater temp
2018-Jun-21 18:00N 38°31' W 008°52'0 0.0
2018-Jun-21 17:30N 38°31' W 008°52'0 0.0
2018-Jun-21 16:57N 38°31' W 008°52'0 0.0
2018-Jun-21 16:30N 38°31' W 008°52'0 0.0
2018-Jun-21 16:00N 38°31' W 008°52'0 0.0
2018-Jun-21 15:30N 38°31' W 008°52'0 0.0
2018-Jun-21 15:00N 38°31' W 008°52'0 0.0
2018-Jun-21 14:30N 38°31' W 008°52'0 0.0
2018-Jun-21 14:00N 38°31' W 008°52'0 0.0
2018-Jun-21 13:30N 38°31' W 008°52'0 0.0
2018-Jun-21 13:00N 38°31' W 008°52'0 0.0
2018-Jun-21 12:30N 38°31' W 008°52'0 0.0
2018-Jun-21 11:57N 38°31' W 008°52'0 0.0
2018-Jun-21 11:30N 38°31' W 008°52'0 0.0
2018-Jun-21 11:00N 38°31' W 008°52'0 0.0
2018-Jun-21 10:24N 38°31' W 008°52'0 0.0
2018-Jun-21 10:00N 38°31' W 008°52'0 0.0
2018-Jun-21 09:30N 38°31' W 008°52'0 0.0
2018-Jun-21 09:00N 38°31' W 008°52'0 0.0
2018-Jun-21 08:30N 38°31' W 008°52'0 0.0
2018-Jun-21 08:00N 38°31' W 008°52'0 0.0
2018-Jun-21 07:27N 38°31' W 008°52'0 0.0
2018-Jun-21 06:57N 38°31' W 008°52'0 0.0
2018-Jun-21 06:30N 38°31' W 008°52'0 0.0
2018-Jun-21 06:00N 38°31' W 008°52'0 0.0
2018-Jun-21 05:30N 38°31' W 008°52'0 0.0
2018-Jun-21 05:00N 38°31' W 008°52'0 0.0
2018-Jun-21 04:30N 38°31' W 008°52'0 0.0
2018-Jun-21 04:00N 38°31' W 008°52'0 0.0
2018-Jun-21 03:27N 38°31' W 008°52'0 0.0
2018-Jun-21 02:57N 38°31' W 008°52'0 0.0
2018-Jun-21 02:30N 38°31' W 008°52'0 0.0
2018-Jun-21 02:00N 38°31' W 008°52'0 0.0
2018-Jun-21 01:30N 38°31' W 008°52'0 0.0
2018-Jun-21 00:57N 38°31' W 008°52'0 0.0
2018-Jun-21 00:30N 38°31' W 008°52'0 0.0
2018-Jun-21 00:00N 38°31' W 008°52'0 0.0
2018-Jun-20 23:27N 38°31' W 008°52'0 0.0
2018-Jun-20 23:00N 38°31' W 008°52'0 0.0
2018-Jun-20 22:27N 38°31' W 008°52'0 0.0
2018-Jun-20 22:00N 38°31' W 008°52'0 0.0
2018-Jun-20 21:30N 38°31' W 008°52'0 0.0
2018-Jun-20 21:00N 38°31' W 008°52'0 0.0
2018-Jun-20 20:30N 38°31' W 008°52'0 0.0
2018-Jun-20 20:00N 38°31' W 008°52'0 0.0
2018-Jun-20 19:30N 38°31' W 008°52'0 0.0
2018-Jun-20 19:00N 38°31' W 008°52'0 0.0
2018-Jun-20 18:30N 38°31' W 008°52'0 0.0
2018-Jun-20 18:00N 38°31' W 008°52'0 0.0
2018-Jun-20 17:30N 38°31' W 008°52'0 0.0
2018-Jun-20 17:00N 38°31' W 008°52'0 0.0
2018-Jun-20 16:30N 38°31' W 008°52'0 0.0
2018-Jun-20 16:00N 38°31' W 008°52'0 0.0
2018-Jun-20 15:27N 38°31' W 008°52'0 0.0
2018-Jun-20 15:00N 38°31' W 008°52'0 0.0
2018-Jun-20 14:30N 38°31' W 008°52'0 0.0
2018-Jun-20 14:00N 38°31' W 008°52'0 0.0
2018-Jun-20 13:30N 38°31' W 008°52'0 0.0
2018-Jun-20 13:00N 38°31' W 008°52'0 0.0
2018-Jun-20 12:30N 38°31' W 008°52'0 0.0
2018-Jun-20 12:00N 38°31' W 008°52'0 0.0
2018-Jun-20 11:30N 38°31' W 008°52'0 0.0
2018-Jun-20 11:00N 38°31' W 008°52'0 0.0
2018-Jun-20 10:30N 38°31' W 008°52'0 0.0
2018-Jun-20 09:57N 38°31' W 008°52'0 0.0
2018-Jun-20 09:30N 38°31' W 008°52'0 0.0
2018-Jun-20 09:00N 38°31' W 008°52'0 0.3
2018-Jun-20 08:30N 38°31' W 008°53'3 6.8
2018-Jun-20 08:00N 38°29' W 008°56'5 9.7
2018-Jun-20 07:30N 38°25' W 009°00'167 7.1
2018-Jun-19 07:51N 41°12' W 008°41'0 0.0
2018-Jun-19 07:30N 41°12' W 008°41'0 0.0
2018-Jun-19 07:00N 41°12' W 008°41'0 0.0
2018-Jun-19 06:30N 41°12' W 008°41'0 0.0
2018-Jun-19 06:00N 41°12' W 008°41'1 1.3
2018-Jun-19 05:30N 41°11' W 008°42'3 5.0
2018-Jun-19 05:00N 41°09' W 008°44'5112.1
2018-Jun-19 00:49N 40°24' W 009°14'412.9
2018-Jun-19 00:30N 40°20' W 009°15'713.0
2018-Jun-19 00:00N 40°14' W 009°18'813.0
2018-Jun-18 23:22N 40°07' W 009°24'613.1
2018-Jun-18 22:54N 40°01' W 009°27'513.1
2018-Jun-18 22:30N 39°56' W 009°29'612.7
2018-Jun-18 22:00N 39°51' W 009°33'612.6
2018-Jun-18 21:30N 39°45' W 009°36'612.7
2018-Jun-18 21:00N 39°39' W 009°39'612.6
2018-Jun-18 20:30N 39°33' W 009°43'612.5
2018-Jun-18 20:00N 39°27' W 009°45'612.9
2018-Jun-18 19:30N 39°21' W 009°46'713.1
2018-Jun-18 18:58N 39°14' W 009°47'613.2
2018-Jun-18 18:30N 39°08' W 009°49'612.0
2018-Jun-18 18:00N 39°02' W 009°50'713.1
2018-Jun-18 17:30N 38°55' W 009°51'713.2
2018-Jun-18 17:00N 38°49' W 009°51'713.1
2018-Jun-18 16:30N 38°42' W 009°51'  
2018-Jun-14 05:50N 35°50' W 006°02'412.0
2018-Jun-14 05:30N 35°53' W 005°60'1110.3
2018-Jun-14 04:26N 35°57' W 005°47'510.7
2018-Jun-14 03:59N 35°57' W 005°41'511.0
2018-Jun-14 03:30N 35°57' W 005°34'611.2
2018-Jun-14 03:00N 35°59' W 005°28'510.3
2018-Jun-14 02:30N 36°00' W 005°22'510.0
2018-Jun-14 02:00N 36°01' W 005°16'21512.0
2018-Jun-13 08:09N 37°14' W 001°04'313.7
2018-Jun-13 07:57N 37°15' W 001°01'613.8
2018-Jun-13 07:30N 37°19' W 000°55'713.7
2018-Jun-13 07:00N 37°24' W 000°48'713.6
2018-Jun-13 06:28N 37°28' W 000°42'713.7
2018-Jun-13 05:59N 37°33' W 000°35'713.9
2018-Jun-13 05:30N 37°38' W 000°30'714.1
2018-Jun-13 05:00N 37°44' W 000°26'714.2
2018-Jun-13 04:30N 37°50' W 000°21'814.3
2018-Jun-13 03:56N 37°57' W 000°15'614.2
2018-Jun-13 03:30N 38°02' W 000°11'714.1
2018-Jun-13 03:00N 38°08' W 000°05'17113.5
2018-Jun-12 14:22N 40°10' E 002°29'713.6
2018-Jun-12 13:53N 40°14' E 002°35'513.5
2018-Jun-12 13:29N 40°18' E 002°41'713.4
2018-Jun-12 12:58N 40°22' E 002°47'1313.4
2018-Jun-12 12:00N 40°30' E 003°01'20313.8
2018-Jun-11 21:14N 42°43' E 006°27'314.0
2018-Jun-11 21:00N 42°44' E 006°30'713.8
2018-Jun-11 20:30N 42°49' E 006°38'714.1
2018-Jun-11 20:00N 42°53' E 006°45'713.9
2018-Jun-11 19:30N 42°58' E 006°51'713.8
2018-Jun-11 19:01N 43°03' E 006°58'713.6
2018-Jun-11 18:30N 43°07' E 007°06'713.6
2018-Jun-11 18:01N 43°12' E 007°13'  
Track history (hours):
 
Tides and Currents Weather Stations Pressure Air Temp Water Temp Dewpoint Dewpoint Depression Visibility Wind Speed Wind Dir Waves Ship Positions

Corelli

Last reported at 2018-Jun-21 18:00 UTC. Time now 2018-Jun-21 18:05 UTC.
Position N 38°31' W 008°52'.

Length 169 m; draft 7.6 m.

Type: Ship (hazmat cat A). MMSI: 256648000.

Date/timePositionNaut miles runAvg speedWind from/ knotsBaromVisibWave heightAir tempDewpointWater temp
2018-Jun-21 18:00N 38°31' W 008°52'0 0.0
2018-Jun-21 17:30N 38°31' W 008°52'0 0.0
2018-Jun-21 16:57N 38°31' W 008°52'0 0.0
2018-Jun-21 16:30N 38°31' W 008°52'0 0.0
2018-Jun-21 16:00N 38°31' W 008°52'0 0.0
2018-Jun-21 15:30N 38°31' W 008°52'0 0.0
2018-Jun-21 15:00N 38°31' W 008°52'0 0.0
2018-Jun-21 14:30N 38°31' W 008°52'0 0.0
2018-Jun-21 14:00N 38°31' W 008°52'0 0.0
2018-Jun-21 13:30N 38°31' W 008°52'0 0.0
2018-Jun-21 13:00N 38°31' W 008°52'0 0.0
2018-Jun-21 12:30N 38°31' W 008°52'0 0.0
2018-Jun-21 11:57N 38°31' W 008°52'0 0.0
2018-Jun-21 11:30N 38°31' W 008°52'0 0.0
2018-Jun-21 11:00N 38°31' W 008°52'0 0.0
2018-Jun-21 10:24N 38°31' W 008°52'0 0.0
2018-Jun-21 10:00N 38°31' W 008°52'0 0.0
2018-Jun-21 09:30N 38°31' W 008°52'0 0.0
2018-Jun-21 09:00N 38°31' W 008°52'0 0.0
2018-Jun-21 08:30N 38°31' W 008°52'0 0.0
2018-Jun-21 08:00N 38°31' W 008°52'0 0.0
2018-Jun-21 07:27N 38°31' W 008°52'0 0.0
2018-Jun-21 06:57N 38°31' W 008°52'0 0.0
2018-Jun-21 06:30N 38°31' W 008°52'0 0.0
2018-Jun-21 06:00N 38°31' W 008°52'0 0.0
2018-Jun-21 05:30N 38°31' W 008°52'0 0.0
2018-Jun-21 05:00N 38°31' W 008°52'0 0.0
2018-Jun-21 04:30N 38°31' W 008°52'0 0.0
2018-Jun-21 04:00N 38°31' W 008°52'0 0.0
2018-Jun-21 03:27N 38°31' W 008°52'0 0.0
2018-Jun-21 02:57N 38°31' W 008°52'0 0.0
2018-Jun-21 02:30N 38°31' W 008°52'0 0.0
2018-Jun-21 02:00N 38°31' W 008°52'0 0.0
2018-Jun-21 01:30N 38°31' W 008°52'0 0.0
2018-Jun-21 00:57N 38°31' W 008°52'0 0.0
2018-Jun-21 00:30N 38°31' W 008°52'0 0.0
2018-Jun-21 00:00N 38°31' W 008°52'0 0.0
2018-Jun-20 23:27N 38°31' W 008°52'0 0.0
2018-Jun-20 23:00N 38°31' W 008°52'0 0.0
2018-Jun-20 22:27N 38°31' W 008°52'0 0.0
2018-Jun-20 22:00N 38°31' W 008°52'0 0.0
2018-Jun-20 21:30N 38°31' W 008°52'0 0.0
2018-Jun-20 21:00N 38°31' W 008°52'0 0.0
2018-Jun-20 20:30N 38°31' W 008°52'0 0.0
2018-Jun-20 20:00N 38°31' W 008°52'0 0.0
2018-Jun-20 19:30N 38°31' W 008°52'0 0.0
2018-Jun-20 19:00N 38°31' W 008°52'0 0.0
2018-Jun-20 18:30N 38°31' W 008°52'0 0.0
2018-Jun-20 18:00N 38°31' W 008°52'0 0.0
2018-Jun-20 17:30N 38°31' W 008°52'0 0.0
2018-Jun-20 17:00N 38°31' W 008°52'0 0.0
2018-Jun-20 16:30N 38°31' W 008°52'0 0.0
2018-Jun-20 16:00N 38°31' W 008°52'0 0.0
2018-Jun-20 15:27N 38°31' W 008°52'0 0.0
2018-Jun-20 15:00N 38°31' W 008°52'0 0.0
2018-Jun-20 14:30N 38°31' W 008°52'0 0.0
2018-Jun-20 14:00N 38°31' W 008°52'0 0.0
2018-Jun-20 13:30N 38°31' W 008°52'0 0.0
2018-Jun-20 13:00N 38°31' W 008°52'0 0.0
2018-Jun-20 12:30N 38°31' W 008°52'0 0.0
2018-Jun-20 12:00N 38°31' W 008°52'0 0.0
2018-Jun-20 11:30N 38°31' W 008°52'0 0.0
2018-Jun-20 11:00N 38°31' W 008°52'0 0.0
2018-Jun-20 10:30N 38°31' W 008°52'0 0.0
2018-Jun-20 09:57N 38°31' W 008°52'0 0.0
2018-Jun-20 09:30N 38°31' W 008°52'0 0.0
2018-Jun-20 09:00N 38°31' W 008°52'0 0.3
2018-Jun-20 08:30N 38°31' W 008°53'3 6.8
2018-Jun-20 08:00N 38°29' W 008°56'5 9.7
2018-Jun-20 07:30N 38°25' W 009°00'167 7.1
2018-Jun-19 07:51N 41°12' W 008°41'0 0.0
2018-Jun-19 07:30N 41°12' W 008°41'0 0.0
2018-Jun-19 07:00N 41°12' W 008°41'0 0.0
2018-Jun-19 06:30N 41°12' W 008°41'0 0.0
2018-Jun-19 06:00N 41°12' W 008°41'1 1.3
2018-Jun-19 05:30N 41°11' W 008°42'3 5.0
2018-Jun-19 05:00N 41°09' W 008°44'5112.1
2018-Jun-19 00:49N 40°24' W 009°14'412.9
2018-Jun-19 00:30N 40°20' W 009°15'713.0
2018-Jun-19 00:00N 40°14' W 009°18'813.0
2018-Jun-18 23:22N 40°07' W 009°24'613.1
2018-Jun-18 22:54N 40°01' W 009°27'513.1
2018-Jun-18 22:30N 39°56' W 009°29'612.7
2018-Jun-18 22:00N 39°51' W 009°33'612.6
2018-Jun-18 21:30N 39°45' W 009°36'612.7
2018-Jun-18 21:00N 39°39' W 009°39'612.6
2018-Jun-18 20:30N 39°33' W 009°43'612.5
2018-Jun-18 20:00N 39°27' W 009°45'612.9
2018-Jun-18 19:30N 39°21' W 009°46'713.1
2018-Jun-18 18:58N 39°14' W 009°47'613.2
2018-Jun-18 18:30N 39°08' W 009°49'612.0
2018-Jun-18 18:00N 39°02' W 009°50'713.1
2018-Jun-18 17:30N 38°55' W 009°51'713.2
2018-Jun-18 17:00N 38°49' W 009°51'713.1
2018-Jun-18 16:30N 38°42' W 009°51'  
2018-Jun-14 05:50N 35°50' W 006°02'412.0
2018-Jun-14 05:30N 35°53' W 005°60'1110.3
2018-Jun-14 04:26N 35°57' W 005°47'510.7
2018-Jun-14 03:59N 35°57' W 005°41'511.0
2018-Jun-14 03:30N 35°57' W 005°34'611.2
2018-Jun-14 03:00N 35°59' W 005°28'510.3
2018-Jun-14 02:30N 36°00' W 005°22'510.0
2018-Jun-14 02:00N 36°01' W 005°16'21512.0
2018-Jun-13 08:09N 37°14' W 001°04'313.7
2018-Jun-13 07:57N 37°15' W 001°01'613.8
2018-Jun-13 07:30N 37°19' W 000°55'713.7
2018-Jun-13 07:00N 37°24' W 000°48'713.6
2018-Jun-13 06:28N 37°28' W 000°42'713.7
2018-Jun-13 05:59N 37°33' W 000°35'713.9
2018-Jun-13 05:30N 37°38' W 000°30'714.1
2018-Jun-13 05:00N 37°44' W 000°26'714.2
2018-Jun-13 04:30N 37°50' W 000°21'814.3
2018-Jun-13 03:56N 37°57' W 000°15'614.2
2018-Jun-13 03:30N 38°02' W 000°11'714.1
2018-Jun-13 03:00N 38°08' W 000°05'17113.5
2018-Jun-12 14:22N 40°10' E 002°29'713.6
2018-Jun-12 13:53N 40°14' E 002°35'513.5
2018-Jun-12 13:29N 40°18' E 002°41'713.4
2018-Jun-12 12:58N 40°22' E 002°47'1313.4
2018-Jun-12 12:00N 40°30' E 003°01'20313.8
2018-Jun-11 21:14N 42°43' E 006°27'314.0
2018-Jun-11 21:00N 42°44' E 006°30'713.8
2018-Jun-11 20:30N 42°49' E 006°38'714.1
2018-Jun-11 20:00N 42°53' E 006°45'713.9
2018-Jun-11 19:30N 42°58' E 006°51'713.8
2018-Jun-11 19:01N 43°03' E 006°58'713.6
2018-Jun-11 18:30N 43°07' E 007°06'713.6
2018-Jun-11 18:01N 43°12' E 007°13'  

Dump ship's entire track history